Time;durP1;ratioP1;P1;durP2;ratioP2;P2;SDS_P1;SDS_P2;PMS_P1;PMS_P2;Temp;Humidity;BMP_temperature;BMP_pressure;BME280_temperature;BME280_humidity;BME280_pressure;Samples;Min_cycle;Max_cycle;Signal;HPM_P1;HPM_P2
2022/11/17 00:01:25;;;;;;;12.18;6.38;;;8.50;99.90;;;;;;4991807;28;20121;-92
2022/11/17 00:03:51;;;;;;;15.98;5.63;;;8.50;99.90;;;;;;4991696;28;20033;-88
2022/11/17 00:06:20;;;;;;;15.75;6.50;;;8.50;99.90;;;;;;4992258;28;20065;-92
2022/11/17 00:08:46;;;;;;;14.93;6.18;;;8.50;99.90;;;;;;4991844;28;20124;-91
2022/11/17 00:11:12;;;;;;;11.10;5.63;;;8.50;99.90;;;;;;4991673;28;20022;-92
2022/11/17 00:16:22;;;;;;;15.90;6.50;;;8.50;99.90;;;;;;4988819;28;20134;-92
2022/11/17 00:21:32;;;;;;;21.60;7.57;;;8.50;99.90;;;;;;4993012;28;20045;-91
2022/11/17 00:23:58;;;;;;;18.80;7.47;;;8.50;99.90;;;;;;4995328;28;20348;-91
2022/11/17 00:26:25;;;;;;;21.73;8.80;;;8.60;99.90;;;;;;4995564;28;20081;-93
2022/11/17 00:28:58;;;;;;;16.42;7.32;;;8.60;99.90;;;;;;4995114;28;20030;-93
2022/11/17 00:34:17;;;;;;;11.50;6.32;;;8.60;99.90;;;;;;4996135;28;20073;-92
2022/11/17 00:36:45;;;;;;;15.43;6.60;;;8.60;99.90;;;;;;4994916;28;20130;-91
2022/11/17 00:39:13;;;;;;;21.77;6.30;;;8.60;99.90;;;;;;4994264;28;20399;-92
2022/11/17 00:41:39;;;;;;;21.58;6.63;;;8.60;99.90;;;;;;4994180;28;20033;-91
2022/11/17 00:44:05;;;;;;;13.80;6.38;;;8.60;99.90;;;;;;4994271;28;20053;-89
2022/11/17 00:46:31;;;;;;;19.75;7.85;;;8.60;99.90;;;;;;4994108;28;20061;-93
2022/11/17 00:48:57;;;;;;;14.82;7.15;;;8.60;99.90;;;;;;4995083;28;20030;-92
2022/11/17 00:51:24;;;;;;;18.02;8.50;;;8.60;99.90;;;;;;4994394;28;20032;-93
2022/11/17 00:53:49;;;;;;;17.25;8.00;;;8.60;99.90;;;;;;4994356;28;20034;-92
2022/11/17 00:56:15;;;;;;;15.38;6.43;;;8.60;99.90;;;;;;4994358;28;20041;-91
2022/11/17 00:58:41;;;;;;;17.35;8.07;;;8.60;99.90;;;;;;4994104;28;20026;-93
2022/11/17 01:01:07;;;;;;;18.50;6.47;;;8.60;99.90;;;;;;4995431;28;20026;-94
2022/11/17 01:03:34;;;;;;;11.93;6.18;;;8.60;99.90;;;;;;4995195;28;20030;-92
2022/11/17 01:06:15;;;;;;;17.58;5.65;;;8.60;99.90;;;;;;4994998;28;20140;-92
2022/11/17 01:08:40;;;;;;;;;;;8.60;99.90;;;;;;4994574;28;20396;-95
2022/11/17 01:11:17;;;;;;;11.27;5.40;;;8.70;99.90;;;;;;4994389;28;19914;-91
2022/11/17 01:13:45;;;;;;;11.90;4.80;;;8.60;99.90;;;;;;4994308;28;20038;-94
2022/11/17 01:16:14;;;;;;;14.73;5.22;;;8.70;99.90;;;;;;4994667;28;20501;-91
2022/11/17 01:18:41;;;;;;;16.10;5.82;;;8.60;99.90;;;;;;4995245;28;20169;-90
2022/11/17 01:21:12;;;;;;;10.25;4.47;;;8.70;99.90;;;;;;4990722;28;20117;-92
2022/11/17 01:23:40;;;;;;;11.02;4.05;;;8.70;99.90;;;;;;4994663;28;20026;-94
2022/11/17 01:26:09;;;;;;;10.35;4.88;;;8.60;99.90;;;;;;5007767;28;20030;-92
2022/11/17 01:28:35;;;;;;;14.07;4.03;;;8.70;99.90;;;;;;5002549;28;20029;-93
2022/11/17 01:31:04;;;;;;;12.63;5.00;;;8.60;99.90;;;;;;5002273;28;20018;-94
2022/11/17 01:33:30;;;;;;;17.20;5.05;;;8.70;99.90;;;;;;4995471;28;20038;-91
2022/11/17 01:36:03;;;;;;;12.93;4.10;;;8.70;99.90;;;;;;4997191;28;20030;-93
2022/11/17 01:38:29;;;;;;;9.18;4.63;;;8.60;99.90;;;;;;5000756;28;20091;-91
2022/11/17 01:41:00;;;;;;;9.27;4.63;;;8.60;99.90;;;;;;5000230;28;20030;-94
2022/11/17 01:43:47;;;;;;;14.32;5.00;;;8.60;99.90;;;;;;5027441;28;20093;-93
2022/11/17 01:46:37;;;;;;;12.05;4.70;;;8.60;99.90;;;;;;4996545;28;20042;-93
2022/11/17 01:49:17;;;;;;;17.55;5.55;;;8.60;99.90;;;;;;4999530;28;20027;-92
2022/11/17 01:51:50;;;;;;;15.93;4.90;;;8.60;99.90;;;;;;4998266;28;20044;-92
2022/11/17 01:54:18;;;;;;;15.68;4.97;;;8.60;99.90;;;;;;5031140;28;20041;-94
2022/11/17 01:56:48;;;;;;;11.60;4.68;;;8.60;99.90;;;;;;4998282;28;20022;-94
2022/11/17 01:59:22;;;;;;;15.77;5.60;;;8.60;99.90;;;;;;4996264;28;20034;-91
2022/11/17 02:01:57;;;;;;;13.15;4.63;;;8.60;99.90;;;;;;4996937;28;20085;-93
2022/11/17 02:04:37;;;;;;;15.70;5.35;;;8.60;99.90;;;;;;4999848;28;20018;-92
2022/11/17 02:07:14;;;;;;;11.73;4.47;;;8.60;99.90;;;;;;4994855;28;20026;-93
2022/11/17 02:09:40;;;;;;;16.65;4.18;;;8.60;99.90;;;;;;4995505;28;20062;-92
2022/11/17 02:12:12;;;;;;;11.50;3.33;;;8.60;99.90;;;;;;4993097;28;20077;-92
2022/11/17 02:14:38;;;;;;;12.02;3.30;;;8.60;99.90;;;;;;4992821;28;20098;-91
2022/11/17 02:17:07;;;;;;;20.30;3.70;;;8.50;99.90;;;;;;4994531;28;20030;-92
2022/11/17 02:19:37;;;;;;;10.55;3.90;;;8.50;99.90;;;;;;4995241;28;20026;-91
2022/11/17 02:22:14;;;;;;;14.43;3.15;;;8.60;99.90;;;;;;4994221;28;20555;-91
2022/11/17 02:25:00;;;;;;;6.53;3.15;;;8.50;99.90;;;;;;4988502;28;20041;-91
2022/11/17 02:28:02;;;;;;;7.32;2.60;;;8.50;99.90;;;;;;4991961;28;20045;-92
2022/11/17 02:30:39;;;;;;;9.65;2.78;;;8.50;99.90;;;;;;4992508;28;20153;-91
2022/11/17 02:33:36;;;;;;;8.70;3.35;;;8.50;99.90;;;;;;4992697;28;20121;-93
2022/11/17 02:36:17;;;;;;;9.70;2.30;;;8.50;99.90;;;;;;4993382;28;20498;-95
2022/11/17 02:38:53;;;;;;;8.73;2.72;;;8.50;99.90;;;;;;4996150;28;20022;-93
2022/11/17 02:41:33;;;;;;;7.90;3.08;;;8.50;99.90;;;;;;4995934;28;20066;-95
2022/11/17 02:44:04;;;;;;;9.73;2.40;;;8.50;99.90;;;;;;4993509;28;20503;-93
2022/11/17 02:46:53;;;;;;;5.13;2.22;;;8.50;99.90;;;;;;4992346;28;20026;-93
2022/11/17 02:49:33;;;;;;;8.43;2.55;;;8.40;99.90;;;;;;4994338;28;20045;-95
2022/11/17 02:52:01;;;;;;;15.80;3.50;;;8.40;99.90;;;;;;4993269;28;20551;-91
2022/11/17 02:54:29;;;;;;;13.40;3.88;;;8.50;99.90;;;;;;4991822;28;20046;-91
2022/11/17 02:56:54;;;;;;;10.43;2.72;;;8.40;99.90;;;;;;4991965;28;20031;-93
2022/11/17 02:59:29;;;;;;;8.13;2.50;;;8.40;99.90;;;;;;4992566;28;20038;-94
2022/11/17 03:02:20;;;;;;;14.13;3.00;;;8.40;99.90;;;;;;4992322;28;20025;-92
2022/11/17 03:05:07;;;;;;;14.50;3.42;;;8.40;99.90;;;;;;4992437;28;20034;-91
2022/11/17 03:08:05;;;;;;;10.15;2.33;;;8.40;99.90;;;;;;4994047;28;20126;-91
2022/11/17 03:10:33;;;;;;;7.88;2.33;;;8.40;99.90;;;;;;4994396;28;20030;-91
2022/11/17 03:13:16;;;;;;;8.23;2.08;;;8.40;99.90;;;;;;4991542;28;20030;-93
2022/11/17 03:15:45;;;;;;;9.93;2.75;;;8.40;99.90;;;;;;4991455;28;20082;-93
2022/11/17 03:18:19;;;;;;;11.25;2.10;;;8.40;99.90;;;;;;4992250;28;20023;-93
2022/11/17 03:21:09;;;;;;;7.72;2.30;;;8.40;99.90;;;;;;4992692;28;20034;-93
2022/11/17 03:23:43;;;;;;;8.25;1.90;;;8.40;99.90;;;;;;4992409;28;20058;-93
2022/11/17 03:26:16;;;;;;;12.40;2.65;;;8.40;99.90;;;;;;4992623;28;20176;-92
2022/11/17 03:28:45;;;;;;;5.90;2.30;;;8.30;99.90;;;;;;4991704;28;20080;-92
2022/11/17 03:31:14;;;;;;;8.93;1.75;;;8.30;99.90;;;;;;4988226;28;20058;-91
2022/11/17 03:33:43;;;;;;;12.82;1.98;;;8.30;99.90;;;;;;4992121;28;20070;-92
2022/11/17 03:36:14;;;;;;;16.35;2.10;;;8.30;99.90;;;;;;4991701;28;20500;-92
2022/11/17 03:38:46;;;;;;;10.57;2.42;;;8.30;99.90;;;;;;4991655;28;20033;-93
2022/11/17 03:41:14;;;;;;;19.15;2.65;;;8.30;99.90;;;;;;4991654;28;20038;-92
2022/11/17 03:43:43;;;;;;;8.48;1.88;;;8.30;99.90;;;;;;4991922;28;20022;-94
2022/11/17 03:46:14;;;;;;;10.13;2.08;;;8.30;99.90;;;;;;4991292;28;20034;-93
2022/11/17 03:48:46;;;;;;;11.50;2.47;;;8.30;99.90;;;;;;4991536;28;20022;-91
2022/11/17 03:51:22;;;;;;;8.50;2.17;;;8.30;99.90;;;;;;4991814;28;20069;-92
2022/11/17 03:53:48;;;;;;;8.88;2.15;;;8.30;99.90;;;;;;5001494;28;20116;-92
2022/11/17 03:56:30;;;;;;;8.30;1.88;;;8.30;99.90;;;;;;5010838;28;20026;-93
2022/11/17 03:59:30;;;;;;;9.70;2.13;;;8.30;99.90;;;;;;5014790;28;20037;-93
2022/11/17 04:01:56;;;;;;;9.18;1.98;;;8.30;99.90;;;;;;4920641;29;20036;-92
2022/11/17 04:04:22;;;;;;;8.18;1.90;;;8.30;99.90;;;;;;4920830;29;20094;-91
2022/11/17 04:06:51;;;;;;;7.13;1.50;;;8.30;99.90;;;;;;4921683;29;20094;-93
2022/11/17 04:09:17;;;;;;;9.18;2.20;;;8.30;99.90;;;;;;4921902;29;20035;-91
2022/11/17 04:17:11;;;;;;;6.63;2.00;;;8.30;99.90;;;;;;4937408;29;20625;-93
2022/11/17 04:19:36;;;;;;;7.70;1.75;;;8.20;99.90;;;;;;4920594;29;20119;-91
2022/11/17 04:22:02;;;;;;;6.68;1.40;;;8.20;99.90;;;;;;4920886;29;20034;-91
2022/11/17 04:24:28;;;;;;;4.78;1.33;;;8.20;99.90;;;;;;4921150;29;20050;-92
2022/11/17 04:29:38;;;;;;;7.55;1.50;;;8.20;99.90;;;;;;4936288;29;20628;-93
2022/11/17 04:32:04;;;;;;;2.78;1.15;;;8.20;99.90;;;;;;4920998;29;20036;-93
2022/11/17 04:34:29;;;;;;;9.23;1.65;;;8.30;99.90;;;;;;4916040;29;20126;-92
2022/11/17 04:36:55;;;;;;;6.68;1.40;;;8.30;99.90;;;;;;4942484;28;20098;-92
2022/11/17 04:39:20;;;;;;;2.75;1.40;;;8.30;99.90;;;;;;5017317;28;20124;-91
2022/11/17 04:41:52;;;;;;;6.60;1.65;;;8.30;99.90;;;;;;5013724;28;20120;-93
2022/11/17 04:44:23;;;;;;;8.70;1.63;;;8.20;99.90;;;;;;5014686;28;20044;-95
2022/11/17 04:46:49;;;;;;;2.85;1.15;;;8.20;99.90;;;;;;5014307;28;20036;-93
2022/11/17 04:49:16;;;;;;;3.97;1.27;;;8.20;99.90;;;;;;5014499;28;20072;-95
2022/11/17 04:51:42;;;;;;;10.82;1.27;;;8.20;99.90;;;;;;5014890;28;20037;-91
2022/11/17 04:54:10;;;;;;;3.17;1.02;;;8.20;99.90;;;;;;5014455;28;20034;-94
2022/11/17 04:56:37;;;;;;;4.47;1.17;;;8.20;99.90;;;;;;5015522;28;20022;-93
2022/11/17 04:59:04;;;;;;;3.05;1.30;;;8.20;99.90;;;;;;5014782;28;20053;-93
2022/11/17 05:01:30;;;;;;;2.88;0.98;;;8.30;99.90;;;;;;5016265;28;20475;-93
2022/11/17 05:03:58;;;;;;;3.28;1.05;;;8.20;99.90;;;;;;5020908;28;20025;-93
2022/11/17 05:06:28;;;;;;;5.70;1.52;;;8.20;99.90;;;;;;5024943;28;20113;-93
2022/11/17 05:08:55;;;;;;;3.40;1.20;;;8.20;99.90;;;;;;5022192;28;20057;-93
2022/11/17 05:14:08;;;;;;;4.50;1.45;;;8.20;99.90;;;;;;5019872;28;20056;-92
2022/11/17 05:19:23;;;;;;;3.30;1.33;;;8.20;99.90;;;;;;5017918;28;20055;-93
2022/11/17 05:21:49;;;;;;;4.55;1.10;;;8.20;99.90;;;;;;5016845;28;20014;-95
2022/11/17 05:24:16;;;;;;;2.13;0.88;;;8.20;99.90;;;;;;5016395;28;20037;-95
2022/11/17 05:26:43;;;;;;;2.47;1.00;;;8.20;99.90;;;;;;5015829;28;20105;-93
2022/11/17 05:29:10;;;;;;;1.48;0.85;;;8.20;99.90;;;;;;5015206;28;20041;-93
2022/11/17 05:31:36;;;;;;;2.05;0.93;;;8.20;99.90;;;;;;5016851;28;20117;-94
2022/11/17 05:34:04;;;;;;;3.65;1.42;;;8.20;99.90;;;;;;5014974;28;20041;-92
2022/11/17 05:36:30;;;;;;;3.30;0.95;;;8.20;99.90;;;;;;5015463;28;20060;-93
2022/11/17 05:38:56;;;;;;;2.33;1.13;;;8.20;99.90;;;;;;5011989;28;20484;-94
2022/11/17 05:41:23;;;;;;;2.55;1.00;;;8.20;99.90;;;;;;5015023;28;20030;-93
2022/11/17 05:43:49;;;;;;;2.70;1.42;;;8.20;99.90;;;;;;5018237;28;20030;-95
2022/11/17 05:46:18;;;;;;;2.53;1.08;;;8.20;99.90;;;;;;5017372;28;20060;-94
2022/11/17 05:48:45;;;;;;;2.10;0.93;;;8.20;99.90;;;;;;5016236;28;20062;-93
2022/11/17 05:51:11;;;;;;;1.67;0.80;;;8.20;99.90;;;;;;5013866;28;20022;-94
2022/11/17 05:53:37;;;;;;;4.55;0.95;;;8.20;99.90;;;;;;5013394;28;20041;-93
2022/11/17 05:56:29;;;;;;;2.92;0.85;;;8.20;99.90;;;;;;5014227;28;20463;-90
2022/11/17 05:59:05;;;;;;;1.35;0.73;;;8.20;99.90;;;;;;5013170;28;20033;-93
2022/11/17 06:01:34;;;;;;;3.05;0.98;;;8.20;99.90;;;;;;5013682;28;20124;-92
2022/11/17 06:04:02;;;;;;;4.72;1.00;;;8.20;99.90;;;;;;5013767;28;20026;-91
2022/11/17 06:06:29;;;;;;;1.05;0.88;;;8.20;99.90;;;;;;5014145;28;20025;-94
2022/11/17 06:08:55;;;;;;;3.00;1.67;;;8.20;99.90;;;;;;5013853;28;20030;-93
2022/11/17 06:11:21;;;;;;;1.13;0.73;;;8.20;99.90;;;;;;5012643;28;20053;-92
2022/11/17 06:13:46;;;;;;;4.38;1.25;;;8.10;99.90;;;;;;5009659;28;20092;-90
2022/11/17 06:16:16;;;;;;;2.83;1.10;;;8.10;99.90;;;;;;5013253;28;20177;-92
2022/11/17 06:18:47;;;;;;;2.80;1.08;;;8.10;99.90;;;;;;5012681;28;20034;-91
2022/11/17 06:21:14;;;;;;;4.65;1.17;;;8.10;99.90;;;;;;5011837;28;20026;-91
2022/11/17 06:23:41;;;;;;;5.15;1.13;;;8.10;99.90;;;;;;5012430;28;20078;-91
2022/11/17 06:26:08;;;;;;;2.22;0.95;;;8.10;99.90;;;;;;5012671;28;20053;-94
2022/11/17 06:28:37;;;;;;;3.10;1.02;;;8.10;99.90;;;;;;5011772;28;20057;-91
2022/11/17 06:31:03;;;;;;;2.03;0.82;;;8.10;99.90;;;;;;5012427;28;20030;-93
2022/11/17 06:33:30;;;;;;;3.55;0.98;;;8.10;99.90;;;;;;5012223;28;20033;-90
2022/11/17 06:35:59;;;;;;;3.92;1.00;;;8.10;99.90;;;;;;5012195;28;20028;-90
2022/11/17 06:38:25;;;;;;;5.80;1.10;;;8.10;99.90;;;;;;5013786;28;20053;-91
2022/11/17 06:40:51;;;;;;;1.60;1.05;;;8.10;99.90;;;;;;5012005;28;20534;-91
2022/11/17 06:43:17;;;;;;;1.48;0.80;;;8.10;99.90;;;;;;5007814;28;20030;-91
2022/11/17 06:45:44;;;;;;;4.68;1.05;;;8.10;99.90;;;;;;5013134;28;20087;-89
2022/11/17 06:48:13;;;;;;;1.08;0.73;;;8.10;99.90;;;;;;5012169;28;20022;-91
2022/11/17 06:50:38;;;;;;;1.88;1.00;;;8.10;99.90;;;;;;5014269;28;20073;-91
2022/11/17 06:53:06;;;;;;;1.33;0.80;;;8.10;99.90;;;;;;5013592;28;20435;-91
2022/11/17 06:55:33;;;;;;;2.88;0.98;;;8.10;99.90;;;;;;5013545;28;20025;-93
2022/11/17 06:58:07;;;;;;;3.55;1.17;;;8.10;99.90;;;;;;5014800;28;20026;-92
2022/11/17 07:00:35;;;;;;;4.95;1.13;;;8.10;99.90;;;;;;5002384;28;20050;-90
2022/11/17 07:03:03;;;;;;;3.63;0.90;;;8.10;99.90;;;;;;4994250;28;20065;-93
2022/11/17 07:05:33;;;;;;;5.53;0.98;;;8.10;99.90;;;;;;4991160;28;20472;-92
2022/11/17 07:08:00;;;;;;;3.33;1.20;;;8.10;99.90;;;;;;5025995;28;20034;-93
2022/11/17 07:10:26;;;;;;;2.35;0.93;;;8.10;99.90;;;;;;4992706;28;20018;-93
2022/11/17 07:12:52;;;;;;;4.40;1.15;;;8.10;99.90;;;;;;4995521;28;20050;-91
2022/11/17 07:15:18;;;;;;;6.57;1.05;;;8.10;99.90;;;;;;4997839;28;20070;-90
2022/11/17 07:17:44;;;;;;;2.33;0.90;;;8.10;99.90;;;;;;5002342;28;20026;-94
2022/11/17 07:20:10;;;;;;;2.05;0.75;;;8.10;99.90;;;;;;4996145;28;20029;-93
2022/11/17 07:22:36;;;;;;;1.13;0.95;;;8.10;99.90;;;;;;4992581;28;20034;-92
2022/11/17 07:25:03;;;;;;;1.20;0.88;;;8.10;99.90;;;;;;5025268;28;20022;-94
2022/11/17 07:27:29;;;;;;;3.08;0.77;;;8.10;99.90;;;;;;4993523;28;20046;-91
2022/11/17 07:29:55;;;;;;;2.28;0.82;;;8.10;99.90;;;;;;4994010;28;20026;-92
2022/11/17 07:32:21;;;;;;;5.85;0.95;;;8.10;99.90;;;;;;4992143;28;20033;-93
2022/11/17 07:34:47;;;;;;;1.35;0.70;;;8.10;99.90;;;;;;4992564;28;20038;-92
2022/11/17 07:37:13;;;;;;;2.00;0.80;;;8.10;99.90;;;;;;5027093;28;20072;-95
2022/11/17 07:39:38;;;;;;;1.20;0.68;;;8.10;99.90;;;;;;4995124;28;20026;-92
2022/11/17 07:42:04;;;;;;;2.95;0.90;;;8.10;99.90;;;;;;5026113;28;20054;-94
2022/11/17 07:44:30;;;;;;;1.02;0.90;;;8.10;99.90;;;;;;4994779;28;20045;-94
2022/11/17 07:46:55;;;;;;;1.52;1.30;;;8.20;99.90;;;;;;5020185;28;20025;-93
2022/11/17 07:49:21;;;;;;;2.83;0.77;;;8.20;99.90;;;;;;4967643;28;20062;-94
2022/11/17 07:51:47;;;;;;;1.38;0.70;;;8.20;99.90;;;;;;4984819;28;20022;-94
2022/11/17 07:54:12;;;;;;;1.42;0.60;;;8.10;99.90;;;;;;4994151;28;20038;-94
2022/11/17 07:56:38;;;;;;;2.38;0.90;;;8.20;99.90;;;;;;4994483;28;20084;-93
2022/11/17 07:59:04;;;;;;;0.50;0.50;;;8.10;99.90;;;;;;4992917;28;20478;-93
2022/11/17 08:01:29;;;;;;;2.67;1.27;;;8.20;99.90;;;;;;4995524;28;20020;-93
2022/11/17 08:03:55;;;;;;;3.53;1.05;;;8.20;99.90;;;;;;4995520;28;20495;-94
2022/11/17 08:06:22;;;;;;;1.77;1.00;;;8.20;99.90;;;;;;4991631;28;20502;-93
2022/11/17 08:08:48;;;;;;;1.45;0.70;;;8.20;99.90;;;;;;5001640;28;20019;-92
2022/11/17 08:11:14;;;;;;;0.60;0.60;;;8.20;99.90;;;;;;5010424;28;20023;-91
2022/11/17 08:13:40;;;;;;;2.42;0.50;;;8.20;99.90;;;;;;5014078;28;20089;-92
2022/11/17 08:16:07;;;;;;;1.58;0.60;;;8.20;99.90;;;;;;5015230;28;20042;-91
2022/11/17 08:18:33;;;;;;;1.83;0.40;;;8.20;99.90;;;;;;5009115;28;20034;-92
2022/11/17 08:21:02;;;;;;;1.40;0.57;;;8.20;99.90;;;;;;5003212;28;20023;-93
2022/11/17 08:23:28;;;;;;;1.45;0.50;;;8.20;99.90;;;;;;5001777;28;20019;-90
2022/11/17 08:25:53;;;;;;;4.18;0.70;;;8.30;99.90;;;;;;5000519;28;20072;-92
2022/11/17 08:28:19;;;;;;;1.70;0.50;;;8.30;99.90;;;;;;5000988;28;20399;-94
2022/11/17 08:30:44;;;;;;;2.25;0.60;;;8.30;99.90;;;;;;5004126;28;20057;-93
2022/11/17 08:33:10;;;;;;;2.78;0.57;;;8.30;99.90;;;;;;4998710;28;20085;-92
2022/11/17 08:35:36;;;;;;;1.77;0.50;;;8.30;99.90;;;;;;4998183;28;20077;-92
2022/11/17 08:38:02;;;;;;;1.17;0.60;;;8.30;99.90;;;;;;4998371;28;20023;-93
2022/11/17 08:40:28;;;;;;;1.73;0.80;;;8.30;99.90;;;;;;5003819;28;20040;-92
2022/11/17 08:42:53;;;;;;;2.90;0.73;;;8.40;99.90;;;;;;5032797;28;20467;-93
2022/11/17 08:45:19;;;;;;;0.80;0.40;;;8.30;99.90;;;;;;5006908;28;20316;-93
2022/11/17 08:47:45;;;;;;;1.73;0.68;;;8.40;99.90;;;;;;5006865;28;20068;-93
2022/11/17 08:50:10;;;;;;;1.35;0.75;;;8.40;99.90;;;;;;5006943;28;20113;-92
2022/11/17 08:52:36;;;;;;;3.42;0.60;;;8.40;99.90;;;;;;5030518;28;20021;-94
2022/11/17 08:55:04;;;;;;;2.20;0.50;;;8.40;99.90;;;;;;5009063;28;20138;-92
2022/11/17 08:57:31;;;;;;;2.08;0.68;;;8.40;99.90;;;;;;5028412;28;20026;-94
2022/11/17 08:59:57;;;;;;;4.25;0.77;;;8.40;99.90;;;;;;5007650;28;20026;-92
2022/11/17 09:02:23;;;;;;;2.70;0.90;;;8.40;99.90;;;;;;4996204;28;20502;-90
2022/11/17 09:04:49;;;;;;;2.78;0.70;;;8.40;99.90;;;;;;4997458;28;20535;-93
2022/11/17 09:07:15;;;;;;;1.10;0.80;;;8.40;99.90;;;;;;4990401;28;20396;-93
2022/11/17 09:09:40;;;;;;;0.63;0.50;;;8.40;99.90;;;;;;4996158;28;20026;-90
2022/11/17 09:12:07;;;;;;;0.75;0.60;;;8.40;99.90;;;;;;4994331;28;20258;-90
2022/11/17 09:14:32;;;;;;;1.52;0.70;;;8.40;99.90;;;;;;4996041;28;20050;-94
2022/11/17 09:16:58;;;;;;;3.85;0.82;;;8.40;99.90;;;;;;4996544;28;20027;-91
2022/11/17 09:19:24;;;;;;;2.28;0.80;;;8.40;99.90;;;;;;5021965;28;20081;-92
2022/11/17 09:21:49;;;;;;;2.72;0.73;;;8.40;99.90;;;;;;4993344;28;20026;-92
2022/11/17 09:24:15;;;;;;;2.75;0.80;;;8.40;99.90;;;;;;4994662;28;20034;-91
2022/11/17 09:26:41;;;;;;;1.35;0.98;;;8.30;99.90;;;;;;4994865;28;20022;-92
2022/11/17 09:29:08;;;;;;;0.80;0.80;;;8.30;99.90;;;;;;4996496;28;20024;-91
2022/11/17 09:31:34;;;;;;;0.93;0.70;;;8.40;99.90;;;;;;4994319;28;20022;-91
2022/11/17 09:34:00;;;;;;;1.58;0.90;;;8.40;99.90;;;;;;4994949;28;20548;-92
2022/11/17 09:36:26;;;;;;;1.35;0.70;;;8.40;99.90;;;;;;4994501;28;20037;-93
2022/11/17 09:38:52;;;;;;;2.35;0.80;;;8.30;99.90;;;;;;4993977;28;20026;-91
2022/11/17 09:41:25;;;;;;;0.85;0.63;;;8.30;99.90;;;;;;4994690;28;20023;-92
2022/11/17 09:44:18;;;;;;;1.33;0.70;;;8.30;99.90;;;;;;4994487;28;20114;-93
2022/11/17 09:47:08;;;;;;;3.47;0.90;;;8.30;99.90;;;;;;5008720;28;20023;-93
2022/11/17 09:49:53;;;;;;;1.27;1.00;;;8.30;99.90;;;;;;4993733;28;20018;-93
2022/11/17 09:52:52;;;;;;;1.63;1.17;;;8.30;99.90;;;;;;4994636;28;20030;-91
2022/11/17 09:55:41;;;;;;;1.17;1.08;;;8.30;99.90;;;;;;4971607;28;20046;-91
2022/11/17 09:58:38;;;;;;;1.10;1.00;;;8.30;99.90;;;;;;4983964;28;20018;-92
2022/11/17 10:01:04;;;;;;;1.20;1.10;;;8.20;99.90;;;;;;4993615;28;20037;-93
2022/11/17 10:03:34;;;;;;;1.02;0.85;;;8.30;99.90;;;;;;4993711;28;20018;-91
2022/11/17 10:06:10;;;;;;;1.50;1.23;;;8.20;99.90;;;;;;4994000;28;20486;-93
2022/11/17 10:08:45;;;;;;;1.17;1.00;;;8.20;99.90;;;;;;4995555;28;20023;-92
2022/11/17 10:11:32;;;;;;;1.80;1.15;;;8.20;99.90;;;;;;4994491;28;20045;-94
2022/11/17 10:14:02;;;;;;;1.30;1.15;;;8.20;99.90;;;;;;4991028;28;20371;-91
2022/11/17 10:16:27;;;;;;;3.42;1.20;;;8.20;99.90;;;;;;4995217;28;20039;-92
2022/11/17 10:18:53;;;;;;;1.05;0.90;;;8.30;99.90;;;;;;4993828;28;20105;-93
2022/11/17 10:21:19;;;;;;;1.77;0.93;;;8.20;99.90;;;;;;4995489;28;20034;-93
2022/11/17 10:23:55;;;;;;;1.63;0.90;;;8.30;99.90;;;;;;4994512;28;20038;-93
2022/11/17 10:26:21;;;;;;;1.02;0.80;;;8.30;99.90;;;;;;4991553;28;20030;-95
2022/11/17 10:28:47;;;;;;;2.72;1.00;;;8.30;99.90;;;;;;4994424;28;20033;-91
2022/11/17 10:31:16;;;;;;;1.20;0.80;;;8.20;99.90;;;;;;4994818;28;20022;-94
2022/11/17 10:33:47;;;;;;;2.30;0.80;;;8.30;99.90;;;;;;4996309;28;20109;-93
2022/11/17 10:36:21;;;;;;;0.82;0.73;;;8.30;99.90;;;;;;4992586;28;20057;-93
2022/11/17 10:38:53;;;;;;;1.48;1.00;;;8.30;99.90;;;;;;4994665;28;20026;-94
2022/11/17 10:41:22;;;;;;;1.13;0.90;;;8.30;99.90;;;;;;4993887;28;20054;-92
2022/11/17 10:44:05;;;;;;;2.13;0.80;;;8.30;99.90;;;;;;4993090;28;20022;-94
2022/11/17 10:46:31;;;;;;;1.15;1.00;;;8.30;99.90;;;;;;4990280;28;20018;-94
2022/11/17 10:49:05;;;;;;;3.13;1.00;;;8.40;99.90;;;;;;4992646;28;20019;-92
2022/11/17 10:51:32;;;;;;;1.67;0.98;;;8.40;99.90;;;;;;4991655;28;20011;-94
2022/11/17 10:54:16;;;;;;;1.00;0.80;;;8.30;99.90;;;;;;4991192;28;20092;-92
2022/11/17 10:56:48;;;;;;;2.38;1.02;;;8.40;99.90;;;;;;4992651;28;20053;-91
2022/11/17 10:59:16;;;;;;;0.90;0.80;;;8.40;99.90;;;;;;4992969;28;20038;-92
2022/11/17 11:01:45;;;;;;;3.40;1.00;;;8.40;99.90;;;;;;4993966;28;20022;-92
2022/11/17 11:04:29;;;;;;;2.35;1.00;;;8.40;99.90;;;;;;5008071;28;20503;-92
2022/11/17 11:07:19;;;;;;;1.27;0.88;;;8.40;99.90;;;;;;5004087;28;20023;-96
2022/11/17 11:10:16;;;;;;;1.40;1.15;;;8.40;99.90;;;;;;4998923;28;20029;-95
2022/11/17 11:12:48;;;;;;;3.33;1.20;;;8.50;99.90;;;;;;4994864;28;20177;-94
2022/11/17 11:15:24;;;;;;;1.45;0.88;;;8.40;99.90;;;;;;5005973;28;20069;-94
2022/11/17 11:17:50;;;;;;;2.20;1.20;;;8.50;99.90;;;;;;5005329;28;20113;-94
2022/11/17 11:20:24;;;;;;;1.95;1.13;;;8.50;99.90;;;;;;5027721;28;20042;-93
2022/11/17 11:23:12;;;;;;;2.35;1.15;;;8.50;99.90;;;;;;5025504;28;20023;-94
2022/11/17 11:25:38;;;;;;;0.90;0.85;;;8.50;99.90;;;;;;4999283;28;20515;-92
2022/11/17 11:28:28;;;;;;;1.13;1.02;;;8.40;99.90;;;;;;4994656;28;20023;-93
2022/11/17 11:31:13;;;;;;;3.85;1.17;;;8.50;99.90;;;;;;4999712;28;20075;-96
2022/11/17 11:33:42;;;;;;;1.92;0.82;;;8.40;99.90;;;;;;5009891;28;20039;-93
2022/11/17 11:36:25;;;;;;;0.98;0.80;;;8.40;99.90;;;;;;5038624;28;20442;-94
2022/11/17 11:39:23;;;;;;;0.95;0.70;;;8.40;99.90;;;;;;5000504;28;20018;-94
2022/11/17 11:42:17;;;;;;;1.33;0.80;;;8.40;99.90;;;;;;5017730;28;20026;-94
2022/11/17 11:45:13;;;;;;;1.15;0.65;;;8.40;99.90;;;;;;5005411;28;20118;-92
2022/11/17 11:48:07;;;;;;;1.13;0.57;;;8.40;99.90;;;;;;5008668;28;20062;-93
2022/11/17 11:50:39;;;;;;;1.30;0.90;;;8.40;99.90;;;;;;5022539;28;20030;-92
2022/11/17 11:53:15;;;;;;;2.30;1.05;;;8.40;99.90;;;;;;5010984;28;20030;-92
2022/11/17 11:55:45;;;;;;;1.05;0.70;;;8.40;99.90;;;;;;4995642;28;20030;-93
2022/11/17 11:58:23;;;;;;;3.47;0.90;;;8.40;99.90;;;;;;4994842;28;20073;-92
2022/11/17 12:01:00;;;;;;;1.33;1.08;;;8.40;99.90;;;;;;4995099;28;20034;-95
2022/11/17 12:03:46;;;;;;;3.15;1.10;;;8.40;99.90;;;;;;4992011;28;20018;-93
2022/11/17 12:06:41;;;;;;;0.65;0.60;;;8.40;99.90;;;;;;4993162;28;20031;-92
2022/11/17 12:09:22;;;;;;;2.17;1.25;;;8.40;99.90;;;;;;5006083;28;20486;-92
2022/11/17 12:12:00;;;;;;;;;;;8.40;99.90;;;;;;4992745;28;20054;-93
2022/11/17 12:14:37;;;;;;;1.13;0.85;;;8.50;99.90;;;;;;4992422;28;19921;-94
2022/11/17 12:17:16;;;;;;;1.58;0.95;;;8.50;99.90;;;;;;4991259;28;20059;-93
2022/11/17 12:19:48;;;;;;;1.30;0.80;;;8.50;99.90;;;;;;4994222;28;20037;-93
2022/11/17 12:22:30;;;;;;;0.90;0.70;;;8.50;99.90;;;;;;4996619;28;20105;-92
2022/11/17 12:25:14;;;;;;;2.10;1.42;;;8.50;99.90;;;;;;5013982;28;20018;-93
2022/11/17 12:27:49;;;;;;;2.17;1.00;;;8.50;99.90;;;;;;4995201;28;20022;-93
2022/11/17 12:30:35;;;;;;;3.67;1.13;;;8.50;99.90;;;;;;4994419;28;20022;-92
2022/11/17 12:33:07;;;;;;;4.03;1.90;;;8.50;99.90;;;;;;4996179;28;20023;-94
2022/11/17 12:35:35;;;;;;;0.90;0.70;;;8.60;99.90;;;;;;4993719;28;20030;-93
2022/11/17 12:38:13;;;;;;;2.13;0.65;;;8.60;99.90;;;;;;4995198;28;20030;-93
2022/11/17 12:40:38;;;;;;;0.45;0.40;;;8.60;99.90;;;;;;4993387;28;20393;-92
2022/11/17 12:43:21;;;;;;;0.68;0.47;;;8.60;99.90;;;;;;4996255;28;20065;-95
2022/11/17 12:46:02;;;;;;;0.60;0.40;;;8.60;99.90;;;;;;4994908;28;20026;-93
2022/11/17 12:48:34;;;;;;;0.93;0.45;;;8.60;99.90;;;;;;4994790;28;20034;-94
2022/11/17 12:51:21;;;;;;;0.68;0.40;;;8.60;99.90;;;;;;4995762;28;20022;-94
2022/11/17 12:53:47;;;;;;;0.60;0.43;;;8.60;99.90;;;;;;5011351;28;20034;-93
2022/11/17 12:56:37;;;;;;;0.60;0.40;;;8.60;99.90;;;;;;4992636;28;20069;-93
2022/11/17 12:59:10;;;;;;;0.68;0.40;;;8.60;99.90;;;;;;4995274;28;20034;-92
2022/11/17 13:02:01;;;;;;;1.73;0.60;;;8.60;99.90;;;;;;4994913;28;20030;-93
2022/11/17 13:04:43;;;;;;;0.65;0.65;;;8.60;99.90;;;;;;4995516;28;20042;-93
2022/11/17 13:07:24;;;;;;;0.88;0.50;;;8.60;99.90;;;;;;4992612;28;20423;-93
2022/11/17 13:09:55;;;;;;;;;;;8.60;99.90;;;;;;4993975;28;20022;-95
2022/11/17 13:12:24;;;;;;;2.60;0.40;;;8.60;99.90;;;;;;4996900;28;19941;-93
2022/11/17 13:14:56;;;;;;;0.30;0.30;;;8.60;99.90;;;;;;5004759;28;20054;-91
2022/11/17 13:17:33;;;;;;;0.30;0.30;;;8.60;99.90;;;;;;4999271;28;20195;-93
2022/11/17 13:20:23;;;;;;;0.98;0.20;;;8.60;99.90;;;;;;5023608;28;20060;-94
2022/11/17 13:23:17;;;;;;;0.65;0.30;;;8.60;99.90;;;;;;4993607;28;20479;-94
2022/11/17 13:25:42;;;;;;;2.45;0.30;;;8.60;99.90;;;;;;4986868;28;20026;-92
2022/11/17 13:28:31;;;;;;;0.82;0.30;;;8.60;99.90;;;;;;5002123;28;20492;-93
2022/11/17 13:30:58;;;;;;;0.30;0.30;;;8.60;99.90;;;;;;5001121;28;20030;-94
2022/11/17 13:33:24;;;;;;;0.52;0.50;;;8.60;99.90;;;;;;5005288;28;20030;-95
2022/11/17 13:36:13;;;;;;;0.45;0.45;;;8.60;99.90;;;;;;4999840;28;20062;-93
2022/11/17 13:38:49;;;;;;;1.15;0.35;;;8.60;99.90;;;;;;5001467;28;20041;-92
2022/11/17 13:41:16;;;;;;;0.30;0.30;;;8.60;99.90;;;;;;4993636;28;20030;-94